Time;durP1;ratioP1;P1;durP2;ratioP2;P2;SDS_P1;SDS_P2;PMS_P1;PMS_P2;Temp;Humidity;BMP_temperature;BMP_pressure;BME280_temperature;BME280_humidity;BME280_pressure;Samples;Min_cycle;Max_cycle;Signal;HPM_P1;HPM_P2
2024/01/25 00:01:00;;;;;;;23.45;3.30;;;;;;;9.23;87.09;101233.53;5214761;28;20043;-73
2024/01/25 00:03:31;;;;;;;19.65;2.65;;;;;;;9.26;87.54;101223.03;5217991;28;20497;-72
2024/01/25 00:06:02;;;;;;;23.40;3.10;;;;;;;9.32;87.21;101228.16;5210960;28;20040;-72
2024/01/25 00:08:32;;;;;;;23.65;3.15;;;;;;;9.23;87.54;101234.41;5215602;28;20407;-72
2024/01/25 00:11:03;;;;;;;22.30;2.60;;;;;;;9.16;87.75;101239.78;5212809;28;20421;-72
2024/01/25 00:13:33;;;;;;;14.50;2.92;;;;;;;9.25;87.61;101231.75;5215884;28;20040;-73
2024/01/25 00:16:04;;;;;;;19.90;3.38;;;;;;;9.22;87.63;101247.47;5215212;28;20029;-72
2024/01/25 00:18:34;;;;;;;26.90;3.75;;;;;;;9.14;87.18;101245.00;5218082;28;20029;-72
2024/01/25 00:21:05;;;;;;;17.95;2.88;;;;;;;9.15;86.85;101251.09;5217381;28;20255;-72
2024/01/25 00:23:35;;;;;;;25.73;3.25;;;;;;;9.22;87.68;101244.88;5217030;28;20025;-73
2024/01/25 00:26:06;;;;;;;20.58;3.00;;;;;;;9.25;87.12;101247.41;5217181;28;20067;-72
2024/01/25 00:28:36;;;;;;;22.08;3.47;;;;;;;9.18;87.56;101236.22;5214170;28;20470;-73
2024/01/25 00:31:07;;;;;;;23.92;3.30;;;;;;;9.24;87.24;101248.31;5217916;28;20036;-73
2024/01/25 00:33:37;;;;;;;21.67;2.70;;;;;;;9.12;87.91;101235.53;5217729;28;20379;-72
2024/01/25 00:36:08;;;;;;;27.75;3.15;;;;;;;9.20;87.07;101238.81;5217485;28;20164;-73
2024/01/25 00:38:38;;;;;;;26.05;3.70;;;;;;;9.24;86.75;101230.03;5215266;28;20451;-72
2024/01/25 00:41:10;;;;;;;26.38;3.20;;;;;;;9.18;87.34;101240.59;5217547;28;20104;-72
2024/01/25 00:43:40;;;;;;;18.88;3.20;;;;;;;9.24;87.49;101248.31;5219045;28;20020;-73
2024/01/25 00:46:11;;;;;;;22.73;3.08;;;;;;;9.20;86.59;101244.91;5218173;28;20037;-72
2024/01/25 00:48:42;;;;;;;24.20;3.92;;;;;;;9.24;86.99;101235.25;5217536;28;20124;-72
2024/01/25 00:51:20;;;;;;;21.27;3.08;;;;;;;9.18;87.33;101246.66;5212726;28;20025;-73
2024/01/25 00:53:51;;;;;;;24.08;3.08;;;;;;;9.12;87.61;101239.84;5217340;28;20067;-72
2024/01/25 00:56:22;;;;;;;19.65;2.65;;;;;;;9.13;86.85;101242.44;5217388;28;20029;-73
2024/01/25 00:58:53;;;;;;;24.70;4.18;;;;;;;9.20;87.45;101238.81;5216945;28;20086;-71
2024/01/25 01:01:24;;;;;;;27.98;3.08;;;;;;;9.12;87.42;101245.06;5218195;28;20039;-73
2024/01/25 01:03:55;;;;;;;22.75;2.80;;;;;;;9.15;87.58;101235.47;5218177;28;20043;-72
2024/01/25 01:06:26;;;;;;;25.88;4.03;;;;;;;9.20;87.53;101251.88;5216990;28;20029;-72
2024/01/25 01:08:56;;;;;;;22.83;3.00;;;;;;;9.13;87.45;101238.06;5217852;28;20028;-73
2024/01/25 01:11:27;;;;;;;23.75;3.75;;;;;;;9.12;87.97;101251.16;5210585;28;20087;-72
2024/01/25 01:13:57;;;;;;;16.02;2.45;;;;;;;9.07;87.96;101257.34;5211091;28;20496;-73
2024/01/25 01:16:30;;;;;;;22.33;2.92;;;;;;;9.04;88.31;101250.44;5216097;28;20547;-73
2024/01/25 01:19:05;;;;;;;19.67;2.38;;;;;;;9.04;87.84;101253.03;5216515;28;20275;-73
2024/01/25 01:21:35;;;;;;;24.42;3.53;;;;;;;9.00;88.22;101250.50;5218079;28;20075;-73
2024/01/25 01:24:06;;;;;;;25.23;3.17;;;;;;;8.99;88.08;101257.50;5217536;28;20033;-73
2024/01/25 01:26:36;;;;;;;13.32;2.45;;;;;;;9.02;88.45;101241.78;5215345;28;20031;-73
2024/01/25 01:29:07;;;;;;;24.33;3.10;;;;;;;9.00;88.59;101256.59;5215178;28;20508;-73
2024/01/25 01:31:38;;;;;;;26.17;3.15;;;;;;;9.05;88.53;101252.16;5214674;28;20381;-73
2024/01/25 01:34:08;;;;;;;21.30;3.00;;;;;;;9.03;88.17;101247.88;5217738;28;20017;-72
2024/01/25 01:36:38;;;;;;;20.83;3.10;;;;;;;8.98;88.57;101242.72;5217406;28;20028;-72
2024/01/25 01:39:09;;;;;;;25.52;3.05;;;;;;;8.98;88.89;101236.66;5217518;28;20017;-72
2024/01/25 01:41:39;;;;;;;21.20;2.53;;;;;;;8.99;88.86;101238.38;5216914;28;20025;-73
2024/01/25 01:44:09;;;;;;;20.77;3.58;;;;;;;8.94;88.47;101241.09;5216235;28;20107;-72
2024/01/25 01:46:40;;;;;;;19.65;2.58;;;;;;;8.90;88.29;101234.19;5216566;28;20108;-72
2024/01/25 01:49:14;;;;;;;17.90;2.85;;;;;;;8.94;89.21;101228.03;5215273;28;20033;-72
2024/01/25 01:51:45;;;;;;;22.55;2.65;;;;;;;8.86;89.45;101226.47;5219958;28;20579;-72
2024/01/25 01:54:15;;;;;;;19.23;2.75;;;;;;;8.87;89.12;101222.97;5221285;28;20108;-72
2024/01/25 01:56:46;;;;;;;25.50;3.13;;;;;;;8.92;89.60;101232.41;5221437;28;20033;-72
2024/01/25 01:59:17;;;;;;;22.80;3.15;;;;;;;8.86;90.10;101221.25;5220580;28;20104;-72
2024/01/25 02:01:47;;;;;;;20.65;2.90;;;;;;;8.83;90.03;101222.16;5221141;28;20025;-71
2024/01/25 02:04:17;;;;;;;20.77;2.85;;;;;;;8.80;89.83;101214.41;5220685;28;20029;-73
2024/01/25 02:06:48;;;;;;;27.13;3.35;;;;;;;8.77;90.42;101227.50;5221063;28;20041;-73
2024/01/25 02:09:18;;;;;;;25.13;3.55;;;;;;;8.74;90.32;101232.72;5219562;28;20118;-73
2024/01/25 02:11:59;;;;;;;17.73;2.83;;;;;;;8.77;90.71;101232.72;5220709;28;20506;-72
2024/01/25 02:14:30;;;;;;;19.92;2.83;;;;;;;8.72;90.82;101244.94;5221375;28;20131;-72
2024/01/25 02:17:01;;;;;;;25.13;3.45;;;;;;;8.77;91.06;101248.34;5220621;28;20039;-73
2024/01/25 02:19:31;;;;;;;25.65;3.30;;;;;;;8.78;90.58;101252.66;5221559;28;20506;-73
2024/01/25 02:22:04;;;;;;;27.02;3.38;;;;;;;8.70;90.86;101256.28;5220757;28;20339;-73
2024/01/25 02:24:35;;;;;;;28.50;4.15;;;;;;;8.70;90.77;101264.94;5220447;28;20044;-72
2024/01/25 02:27:05;;;;;;;24.38;3.13;;;;;;;8.69;91.00;101259.78;5219101;28;20497;-73
2024/01/25 02:29:35;;;;;;;19.90;2.80;;;;;;;8.68;91.41;101261.50;5220278;28;20024;-73
2024/01/25 02:32:06;;;;;;;23.05;2.65;;;;;;;8.66;91.31;101263.28;5220306;28;20413;-72
2024/01/25 02:34:36;;;;;;;31.70;3.72;;;;;;;8.67;91.58;101264.13;5219215;28;20021;-72
2024/01/25 02:37:07;;;;;;;26.42;3.42;;;;;;;8.67;91.24;101267.63;5220912;28;20028;-72
2024/01/25 02:39:37;;;;;;;19.42;2.80;;;;;;;8.65;91.52;101264.19;5219631;28;20391;-72
2024/01/25 02:42:07;;;;;;;21.88;2.95;;;;;;;8.54;91.96;101255.66;5217777;28;20048;-72
2024/01/25 02:44:37;;;;;;;24.23;3.10;;;;;;;8.49;91.76;101270.53;5218728;28;20021;-72
2024/01/25 02:47:08;;;;;;;19.08;2.63;;;;;;;8.56;92.38;101269.53;5219580;28;20025;-72
2024/01/25 02:49:38;;;;;;;24.75;3.15;;;;;;;8.50;92.25;101268.75;5232576;28;20032;-72
2024/01/25 02:52:09;;;;;;;24.08;4.15;;;;;;;8.49;92.14;101277.47;5219729;28;20266;-72
2024/01/25 02:54:39;;;;;;;23.83;3.42;;;;;;;8.51;92.04;101270.47;5220648;28;20036;-72
2024/01/25 02:57:09;;;;;;;20.80;2.60;;;;;;;8.39;92.86;101271.53;5219546;28;20036;-71
2024/01/25 02:59:40;;;;;;;28.60;3.65;;;;;;;8.42;92.14;101274.09;5220086;28;20071;-72
2024/01/25 03:02:10;;;;;;;15.30;2.35;;;;;;;8.37;92.69;101273.31;5218869;28;20055;-72
2024/01/25 03:04:40;;;;;;;18.27;2.50;;;;;;;8.30;92.81;101276.91;5218520;28;20021;-72
2024/01/25 03:07:11;;;;;;;21.08;2.90;;;;;;;8.29;93.10;101275.19;5218265;28;20028;-72
2024/01/25 03:09:41;;;;;;;13.80;2.55;;;;;;;8.38;93.07;101277.63;5220386;28;20401;-72
2024/01/25 03:12:11;;;;;;;22.70;3.15;;;;;;;8.27;93.56;101276.97;5217067;28;20440;-72
2024/01/25 03:14:41;;;;;;;26.15;3.53;;;;;;;8.27;93.18;101282.16;5217997;28;20044;-72
2024/01/25 03:17:12;;;;;;;23.80;3.20;;;;;;;8.28;93.45;101278.69;5219671;28;20044;-72
2024/01/25 03:19:42;;;;;;;27.80;3.47;;;;;;;8.30;93.48;101274.31;5218276;28;20060;-72
2024/01/25 03:22:13;;;;;;;22.08;3.30;;;;;;;8.35;93.35;101267.28;5219457;28;20029;-73
2024/01/25 03:24:43;;;;;;;25.60;2.95;;;;;;;8.25;93.33;101278.69;5219135;28;20029;-72
2024/01/25 03:27:14;;;;;;;25.27;3.28;;;;;;;8.26;93.38;101270.03;5216799;28;20402;-72
2024/01/25 03:29:44;;;;;;;26.48;2.90;;;;;;;8.31;93.50;101273.41;5220033;28;20025;-73
2024/01/25 03:32:14;;;;;;;20.88;2.83;;;;;;;8.21;93.67;101284.84;5219234;28;20029;-73
2024/01/25 03:34:45;;;;;;;25.15;3.20;;;;;;;8.25;93.88;101280.47;5219882;28;20479;-73
2024/01/25 03:37:15;;;;;;;31.35;3.83;;;;;;;8.26;93.64;101274.34;5217453;28;20017;-72
2024/01/25 03:39:45;;;;;;;20.33;3.22;;;;;;;8.22;94.00;101276.13;5218779;28;20105;-73
2024/01/25 03:42:15;;;;;;;22.77;2.75;;;;;;;8.26;93.51;101280.44;5216705;28;20390;-72
2024/01/25 03:44:47;;;;;;;19.88;3.15;;;;;;;8.26;93.50;101292.59;5218575;28;20106;-72
2024/01/25 03:47:17;;;;;;;25.15;2.85;;;;;;;8.22;93.41;101291.75;5218877;28;20417;-72
2024/01/25 03:49:47;;;;;;;30.52;3.10;;;;;;;8.23;93.79;101311.72;5217610;28;20094;-71
2024/01/25 03:52:18;;;;;;;29.38;3.38;;;;;;;8.28;94.00;101317.72;5218294;28;20393;-72
2024/01/25 03:54:48;;;;;;;26.05;2.70;;;;;;;8.25;93.95;101312.53;5218612;28;20087;-72
2024/01/25 03:57:18;;;;;;;27.85;3.50;;;;;;;8.27;93.80;101325.56;5217429;28;20262;-72
2024/01/25 03:59:49;;;;;;;27.25;3.33;;;;;;;8.24;93.91;101323.84;5220060;28;20032;-72
2024/01/25 04:02:19;;;;;;;27.23;3.10;;;;;;;8.32;93.91;101331.56;5219638;28;20098;-72
2024/01/25 04:04:49;;;;;;;16.98;2.95;;;;;;;8.32;94.31;101335.03;5219125;28;20449;-72
2024/01/25 04:07:20;;;;;;;20.55;3.08;;;;;;;8.29;93.70;101350.69;5218747;28;21063;-72
2024/01/25 04:09:50;;;;;;;26.55;3.13;;;;;;;8.29;93.94;101332.47;5219060;28;20111;-73
2024/01/25 04:12:20;;;;;;;24.25;3.17;;;;;;;8.32;93.80;101345.44;5217645;28;20041;-72
2024/01/25 04:14:51;;;;;;;25.23;3.80;;;;;;;8.36;93.80;101344.50;5217973;28;20474;-72
2024/01/25 04:17:21;;;;;;;25.25;3.13;;;;;;;8.41;93.53;101353.09;5216776;28;20073;-73
2024/01/25 04:19:51;;;;;;;21.65;3.38;;;;;;;8.48;93.17;101362.56;5217642;28;20037;-72
2024/01/25 04:22:22;;;;;;;28.15;3.42;;;;;;;8.40;93.50;101360.97;5218716;28;20035;-72
2024/01/25 04:24:52;;;;;;;21.52;2.72;;;;;;;8.44;93.28;101367.84;5218638;28;20104;-71
2024/01/25 04:27:22;;;;;;;25.08;2.90;;;;;;;8.37;93.50;101361.84;5217503;28;20457;-72
2024/01/25 04:29:52;;;;;;;24.48;3.25;;;;;;;8.27;93.93;101357.69;5217912;28;20035;-72
2024/01/25 04:32:23;;;;;;;22.70;3.47;;;;;;;8.36;93.38;101373.16;5218324;28;20040;-72
2024/01/25 04:34:53;;;;;;;30.58;3.03;;;;;;;8.36;93.57;101380.97;5218310;28;20534;-72
2024/01/25 04:37:23;;;;;;;31.88;3.70;;;;;;;8.29;93.68;101389.75;5214749;28;20035;-72
2024/01/25 04:39:54;;;;;;;22.75;2.67;;;;;;;8.27;93.79;101391.53;5217642;28;20398;-72
2024/01/25 04:42:24;;;;;;;23.02;3.28;;;;;;;8.30;93.66;101399.28;5217970;28;20055;-72
2024/01/25 04:44:54;;;;;;;18.25;3.13;;;;;;;8.32;93.30;101400.13;5218265;28;20045;-72
2024/01/25 04:47:25;;;;;;;23.73;2.78;;;;;;;8.35;93.70;101404.44;5217946;28;20031;-72
2024/01/25 04:49:55;;;;;;;30.77;4.10;;;;;;;8.32;93.43;101410.56;5218213;28;20386;-72
2024/01/25 04:52:25;;;;;;;23.15;3.60;;;;;;;8.29;93.34;101413.19;5217756;28;20130;-72
2024/01/25 04:54:55;;;;;;;28.08;3.72;;;;;;;8.15;93.49;101414.19;5217856;28;20035;-73
2024/01/25 04:57:26;;;;;;;21.92;2.47;;;;;;;8.21;93.33;101428.03;5217073;28;20036;-72
2024/01/25 04:59:56;;;;;;;22.98;2.97;;;;;;;8.20;93.71;101428.09;5218221;28;20029;-72
2024/01/25 05:02:26;;;;;;;25.80;3.30;;;;;;;8.15;93.25;101438.50;5217698;28;20075;-72
2024/01/25 05:04:57;;;;;;;23.02;2.80;;;;;;;8.21;93.44;101430.66;5215995;28;20033;-72
2024/01/25 05:07:27;;;;;;;27.63;3.15;;;;;;;8.23;93.45;101431.47;5217872;28;20025;-72
2024/01/25 05:09:57;;;;;;;23.88;3.08;;;;;;;8.14;93.67;101431.59;5218054;28;20094;-72
2024/01/25 05:12:27;;;;;;;20.77;3.20;;;;;;;8.18;93.17;101438.50;5217693;28;20513;-72
2024/01/25 05:14:58;;;;;;;27.85;2.92;;;;;;;8.13;93.37;101445.47;5218023;28;20029;-72
2024/01/25 05:17:28;;;;;;;23.63;3.60;;;;;;;8.21;93.64;101450.63;5216546;28;20505;-72
2024/01/25 05:19:59;;;;;;;17.25;2.50;;;;;;;8.19;93.15;101455.00;5217986;28;20044;-72
2024/01/25 05:22:29;;;;;;;16.67;2.85;;;;;;;8.12;93.16;101450.69;5217728;28;20461;-73
2024/01/25 05:24:59;;;;;;;22.42;3.63;;;;;;;8.21;93.44;101448.03;5218031;28;20035;-73
2024/01/25 05:27:29;;;;;;;23.85;3.38;;;;;;;8.16;93.48;101458.47;5220505;28;20390;-72
2024/01/25 05:30:00;;;;;;;21.02;2.42;;;;;;;8.15;93.73;101450.66;5218847;28;20372;-73
2024/01/25 05:32:30;;;;;;;25.08;2.22;;;;;;;8.13;93.62;101455.91;5217193;28;20621;-72
2024/01/25 05:35:00;;;;;;;23.60;2.40;;;;;;;8.14;93.05;101452.41;5220018;28;20025;-72
2024/01/25 05:37:31;;;;;;;26.55;3.20;;;;;;;8.10;93.70;101448.13;5221508;28;20040;-72
2024/01/25 05:40:01;;;;;;;21.63;3.13;;;;;;;8.08;94.27;101449.84;5220632;28;20234;-72
2024/01/25 05:42:32;;;;;;;16.67;2.65;;;;;;;7.95;94.03;101450.91;5219797;28;20037;-72
2024/01/25 05:45:03;;;;;;;27.67;3.15;;;;;;;7.95;93.95;101448.28;5211949;28;20398;-70
2024/01/25 05:47:34;;;;;;;22.67;2.67;;;;;;;7.89;94.36;101450.09;5214930;28;20036;-73
2024/01/25 05:50:05;;;;;;;26.30;3.47;;;;;;;7.93;94.53;101455.25;5218556;28;20036;-71
2024/01/25 05:52:37;;;;;;;21.83;3.17;;;;;;;8.00;93.78;101459.50;5220902;28;20410;-72
2024/01/25 05:55:08;;;;;;;19.73;3.17;;;;;;;7.98;93.91;101469.06;5220531;28;20112;-71
2024/01/25 05:57:38;;;;;;;22.50;2.53;;;;;;;7.98;94.38;101460.41;5222445;28;20112;-73
2024/01/25 06:00:11;;;;;;;24.38;2.53;;;;;;;7.98;93.87;101460.41;5217648;28;20029;-70
2024/01/25 06:02:43;;;;;;;18.02;2.55;;;;;;;7.96;93.47;101465.63;5211247;28;20036;-72
2024/01/25 06:05:13;;;;;;;20.50;3.15;;;;;;;7.94;94.03;101464.78;5216050;28;20025;-73
2024/01/25 06:07:44;;;;;;;27.27;3.58;;;;;;;7.90;93.76;101478.69;5221812;28;20040;-72
2024/01/25 06:10:14;;;;;;;20.75;2.58;;;;;;;7.83;94.48;101476.16;5220797;28;20079;-72
2024/01/25 06:12:44;;;;;;;21.50;2.50;;;;;;;7.87;94.39;101462.28;5221275;28;20033;-72
2024/01/25 06:15:15;;;;;;;29.25;3.80;;;;;;;7.84;94.47;101476.16;5210639;28;20110;-72
2024/01/25 06:17:45;;;;;;;24.50;2.72;;;;;;;7.85;94.87;101477.88;5218403;28;20112;-72
2024/01/25 06:20:16;;;;;;;19.30;2.55;;;;;;;7.86;94.07;101491.78;5220272;28;20021;-72
2024/01/25 06:22:46;;;;;;;20.88;2.65;;;;;;;7.86;94.53;101487.41;5220693;28;20040;-72
2024/01/25 06:25:16;;;;;;;20.45;3.20;;;;;;;7.87;94.27;101490.91;5220174;28;20025;-73
2024/01/25 06:27:46;;;;;;;17.05;2.83;;;;;;;7.92;93.74;101487.38;5220600;28;20025;-73
2024/01/25 06:30:17;;;;;;;14.75;2.47;;;;;;;7.90;94.38;101488.25;5220178;28;20028;-72
2024/01/25 06:32:47;;;;;;;22.85;2.50;;;;;;;7.80;94.71;101491.81;5221064;28;20068;-72
2024/01/25 06:35:17;;;;;;;15.85;2.20;;;;;;;7.83;94.46;101503.06;5219876;28;20029;-72
2024/01/25 06:37:48;;;;;;;24.35;3.00;;;;;;;7.82;93.88;101497.88;5217005;28;20408;-72
2024/01/25 06:40:18;;;;;;;11.30;2.00;;;;;;;7.85;94.78;101501.31;5217213;28;20052;-73
2024/01/25 06:42:48;;;;;;;20.20;2.95;;;;;;;7.75;94.79;101502.28;5215867;28;20025;-72
2024/01/25 06:45:18;;;;;;;22.60;2.83;;;;;;;7.85;94.96;101501.31;5217835;28;20094;-72
2024/01/25 06:47:49;;;;;;;20.30;2.33;;;;;;;7.84;94.32;101510.00;5219084;28;20024;-72
2024/01/25 06:50:19;;;;;;;18.30;2.67;;;;;;;7.78;94.96;101517.88;5219122;28;20692;-73
2024/01/25 06:52:49;;;;;;;23.17;3.05;;;;;;;7.69;95.62;101512.72;5219598;28;20029;-73
2024/01/25 06:55:20;;;;;;;23.77;2.70;;;;;;;7.75;95.17;101520.50;5216664;28;20029;-73
2024/01/25 06:57:50;;;;;;;17.73;3.00;;;;;;;7.73;95.06;101521.38;5220589;28;20102;-72
2024/01/25 07:00:21;;;;;;;22.40;3.08;;;;;;;7.73;94.81;101522.22;5219652;28;20028;-73
2024/01/25 07:02:51;;;;;;;21.88;2.95;;;;;;;7.60;95.60;101520.63;5216551;28;20070;-72
2024/01/25 07:05:21;;;;;;;18.52;2.65;;;;;;;7.73;95.89;101532.63;5219982;28;20112;-72
2024/01/25 07:07:53;;;;;;;23.63;2.67;;;;;;;7.74;95.01;101530.91;5219949;28;20067;-73
2024/01/25 07:10:23;;;;;;;17.67;3.08;;;;;;;7.73;95.09;101539.59;5217434;28;20025;-73
2024/01/25 07:12:54;;;;;;;17.50;3.10;;;;;;;7.68;95.23;101541.38;5217979;28;20033;-73
2024/01/25 07:15:24;;;;;;;25.02;3.05;;;;;;;7.78;94.67;101538.69;5217683;28;20053;-73
2024/01/25 07:17:55;;;;;;;20.95;2.35;;;;;;;7.73;95.11;101543.03;5220349;28;20405;-73
2024/01/25 07:20:25;;;;;;;12.52;2.00;;;;;;;7.74;95.58;101541.31;5218940;28;20056;-73
2024/01/25 07:22:56;;;;;;;24.50;3.45;;;;;;;7.81;94.89;101551.66;5219962;28;20682;-73
2024/01/25 07:25:26;;;;;;;18.00;2.42;;;;;;;7.88;94.51;101553.31;5219485;28;20181;-73
2024/01/25 07:27:57;;;;;;;15.07;2.60;;;;;;;7.74;94.49;101570.78;5219613;28;20025;-72
2024/01/25 07:30:27;;;;;;;23.13;2.70;;;;;;;7.69;95.24;101577.78;5217279;28;20032;-73
2024/01/25 07:32:58;;;;;;;22.77;2.83;;;;;;;7.76;95.38;101583.78;5219311;28;20103;-72
2024/01/25 07:35:28;;;;;;;23.73;2.78;;;;;;;7.77;95.02;101583.78;5219233;28;20029;-73
2024/01/25 07:37:59;;;;;;;14.73;2.30;;;;;;;7.77;95.62;101594.19;5220265;28;20033;-73
2024/01/25 07:40:29;;;;;;;19.98;3.20;;;;;;;7.83;95.34;101586.34;5218504;28;20084;-73
2024/01/25 07:42:59;;;;;;;24.40;2.72;;;;;;;7.82;94.61;101592.41;5219589;28;20468;-73
2024/01/25 07:45:31;;;;;;;23.27;2.78;;;;;;;7.83;95.15;101596.75;5218884;28;20079;-73
2024/01/25 07:48:01;;;;;;;17.02;2.53;;;;;;;7.78;95.19;101595.94;5220216;28;20120;-73
2024/01/25 07:50:32;;;;;;;29.63;3.10;;;;;;;7.77;95.37;101594.19;5218188;28;20544;-73
2024/01/25 07:53:03;;;;;;;23.10;2.85;;;;;;;7.69;96.14;101603.78;5218636;28;20024;-73
2024/01/25 07:55:33;;;;;;;22.15;2.50;;;;;;;7.83;95.97;101596.75;5218858;28;20033;-72
2024/01/25 07:58:03;;;;;;;22.45;2.97;;;;;;;7.75;96.27;101593.34;5220200;28;20091;-73
2024/01/25 08:00:34;;;;;;;23.98;2.88;;;;;;;7.79;95.92;101589.84;5218498;28;20035;-73
2024/01/25 08:03:05;;;;;;;24.10;2.70;;;;;;;7.68;96.39;101594.25;5218366;28;20179;-72
2024/01/25 08:05:35;;;;;;;23.67;3.10;;;;;;;7.66;96.45;101590.81;5218939;28;20028;-72
2024/01/25 08:08:06;;;;;;;23.23;4.00;;;;;;;7.67;96.47;101594.28;5217828;28;20362;-72
2024/01/25 08:10:36;;;;;;;28.98;4.10;;;;;;;7.67;96.88;101587.34;5217742;28;20159;-73
2024/01/25 08:13:06;;;;;;;24.50;4.45;;;;;;;7.67;96.54;101597.75;5219507;28;20106;-73
2024/01/25 08:15:36;;;;;;;26.48;5.35;;;;;;;7.67;97.85;101592.53;5218812;28;20033;-72
2024/01/25 08:18:07;;;;;;;23.83;4.55;;;;;;;7.76;96.75;101597.69;5219376;28;20474;-73
2024/01/25 08:20:38;;;;;;;24.23;3.20;;;;;;;7.72;97.29;101608.97;5218118;28;20063;-73
2024/01/25 08:23:09;;;;;;;22.73;3.60;;;;;;;7.74;97.94;101612.41;5219223;28;20122;-73
2024/01/25 08:25:39;;;;;;;17.15;2.88;;;;;;;7.82;97.24;101609.75;5217067;28;20494;-73
2024/01/25 08:28:09;;;;;;;24.60;3.03;;;;;;;7.75;97.05;101618.50;5217037;28;20104;-73
2024/01/25 08:30:40;;;;;;;27.52;3.15;;;;;;;7.62;98.29;101619.44;5218973;28;20025;-72
2024/01/25 08:33:10;;;;;;;25.88;3.33;;;;;;;7.72;97.34;101626.31;5218513;28;20132;-73
2024/01/25 08:35:40;;;;;;;27.45;3.42;;;;;;;7.75;97.55;101624.59;5218659;28;20181;-73
2024/01/25 08:38:10;;;;;;;28.27;3.75;;;;;;;7.69;98.19;101624.59;5219429;28;20479;-73
2024/01/25 08:40:41;;;;;;;23.85;3.53;;;;;;;7.82;97.69;101636.66;5217326;28;20036;-73
2024/01/25 08:43:11;;;;;;;26.67;3.38;;;;;;;7.78;97.21;101627.16;5219022;28;20272;-73
2024/01/25 08:45:42;;;;;;;20.95;3.10;;;;;;;7.68;97.06;101633.28;5217988;28;20055;-73
2024/01/25 08:48:13;;;;;;;24.00;2.67;;;;;;;7.67;96.88;101641.13;5217805;28;20028;-73
2024/01/25 08:50:43;;;;;;;26.33;3.00;;;;;;;7.73;97.30;101646.28;5218447;28;20028;-73
2024/01/25 08:53:13;;;;;;;26.00;4.07;;;;;;;7.77;97.54;101647.97;5218834;28;20418;-72
2024/01/25 08:55:44;;;;;;;23.33;3.67;;;;;;;7.80;96.93;101653.16;5218544;28;20032;-73
2024/01/25 08:58:14;;;;;;;30.65;5.50;;;;;;;7.84;97.23;101660.94;5218722;28;20055;-73
2024/01/25 09:00:44;;;;;;;28.27;3.85;;;;;;;7.67;96.92;101657.56;5215864;28;20024;-73
2024/01/25 09:03:15;;;;;;;45.75;9.48;;;;;;;7.78;96.86;101666.19;5217076;28;20082;-73
2024/01/25 09:05:45;;;;;;;23.50;5.90;;;;;;;7.69;96.74;101661.03;5214882;28;20037;-72
2024/01/25 09:08:16;;;;;;;28.60;4.40;;;;;;;7.71;97.12;101659.28;5216199;28;20100;-72
2024/01/25 09:10:46;;;;;;;28.80;7.50;;;;;;;7.81;96.67;101663.56;5217128;28;20086;-73
2024/01/25 09:13:16;;;;;;;26.08;4.35;;;;;;;7.83;96.68;101676.53;5216490;28;20531;-73
2024/01/25 09:15:47;;;;;;;22.30;4.57;;;;;;;7.76;97.10;101678.34;5217383;28;20119;-73
2024/01/25 09:18:17;;;;;;;25.75;3.88;;;;;;;7.61;97.05;101678.44;5216261;28;20025;-72
2024/01/25 09:20:48;;;;;;;22.55;3.97;;;;;;;7.71;97.75;101684.44;5217600;28;20075;-73
2024/01/25 09:23:18;;;;;;;20.17;2.72;;;;;;;7.79;96.66;101682.66;5215825;28;21121;-71
2024/01/25 09:25:49;;;;;;;27.58;3.88;;;;;;;7.82;96.47;101685.22;5217751;28;20533;-73
2024/01/25 09:28:19;;;;;;;17.98;2.90;;;;;;;7.88;96.02;101696.47;5216924;28;20025;-70
2024/01/25 09:30:49;;;;;;;16.92;3.08;;;;;;;7.90;96.11;101701.66;5216325;28;20040;-72
2024/01/25 09:33:20;;;;;;;25.13;3.53;;;;;;;8.00;96.58;101698.09;5216755;28;20029;-71
2024/01/25 09:35:50;;;;;;;19.58;3.20;;;;;;;8.04;95.66;101705.88;5216118;28;20155;-72
2024/01/25 09:38:20;;;;;;;23.00;3.58;;;;;;;8.04;95.78;101705.88;5217230;28;20064;-72
2024/01/25 09:40:51;;;;;;;18.60;3.47;;;;;;;8.03;94.92;101714.56;5217636;28;20056;-73
2024/01/25 09:43:22;;;;;;;20.98;3.28;;;;;;;7.99;94.84;101712.88;5217550;28;20611;-72
2024/01/25 09:45:55;;;;;;;22.90;2.95;;;;;;;7.96;95.71;101714.63;5216508;28;20120;-72
2024/01/25 09:48:26;;;;;;;24.73;3.60;;;;;;;8.00;95.42;101711.13;5217180;28;20412;-72
2024/01/25 09:50:59;;;;;;;25.55;3.35;;;;;;;7.92;94.97;101711.19;5216600;28;20112;-73
2024/01/25 09:53:33;;;;;;;25.88;3.45;;;;;;;8.06;95.14;101719.75;5217226;28;20064;-73
2024/01/25 09:56:09;;;;;;;18.02;3.22;;;;;;;8.13;94.99;101718.84;5214705;28;20412;-73
2024/01/25 09:58:42;;;;;;;26.15;3.67;;;;;;;8.11;94.51;101720.59;5216222;28;20048;-73
2024/01/25 10:01:15;;;;;;;22.73;4.75;;;;;;;8.12;93.93;101714.53;5178820;28;1063717;-73
2024/01/25 10:03:46;;;;;;;20.73;3.35;;;;;;;8.07;93.65;101723.25;5216880;28;20025;-72
2024/01/25 10:06:17;;;;;;;20.20;3.70;;;;;;;8.18;93.43;101717.09;5218206;28;20244;-72
2024/01/25 10:08:47;;;;;;;21.88;3.90;;;;;;;8.30;92.52;101710.94;5218056;28;20048;-73
2024/01/25 10:11:17;;;;;;;20.05;3.70;;;;;;;8.30;92.04;101711.81;5218010;28;20416;-73
2024/01/25 10:13:50;;;;;;;50.90;11.52;;;;;;;8.18;92.36;101709.28;5221556;28;20029;-73
2024/01/25 10:16:21;;;;;;;28.13;3.50;;;;;;;8.26;92.29;101710.13;5220230;28;20025;-73
2024/01/25 10:18:52;;;;;;;22.05;3.25;;;;;;;8.31;93.15;101716.13;5220434;28;20067;-72
2024/01/25 10:21:22;;;;;;;17.83;3.13;;;;;;;8.39;92.55;101716.91;5221413;28;20037;-71
2024/01/25 10:23:57;;;;;;;13.77;3.15;;;;;;;8.24;92.83;101717.03;5221632;28;20521;-72
2024/01/25 10:26:28;;;;;;;28.02;4.63;;;;;;;8.24;93.18;101722.25;5219605;28;20697;-72
2024/01/25 10:29:00;;;;;;;25.67;3.60;;;;;;;8.37;91.62;101723.88;5221354;28;20033;-72
2024/01/25 10:31:31;;;;;;;27.38;3.35;;;;;;;8.42;91.35;101729.91;5219445;28;20029;-72
2024/01/25 10:34:02;;;;;;;20.20;3.15;;;;;;;8.55;91.89;101721.13;5220836;28;20524;-73
2024/01/25 10:36:32;;;;;;;15.35;3.33;;;;;;;8.69;90.56;101724.47;5219951;28;20267;-73
2024/01/25 10:39:04;;;;;;;21.85;3.10;;;;;;;8.75;89.37;101724.41;5221670;28;20021;-73
2024/01/25 10:41:35;;;;;;;25.33;3.65;;;;;;;8.69;89.81;101734.91;5219245;28;20029;-73
2024/01/25 10:44:06;;;;;;;23.45;3.20;;;;;;;8.85;89.20;101728.66;5221466;28;20024;-73
2024/01/25 10:46:38;;;;;;;23.02;3.20;;;;;;;8.65;89.32;101733.19;5218637;28;20040;-73
2024/01/25 10:49:09;;;;;;;21.02;2.95;;;;;;;8.66;89.77;101734.94;5221343;28;20047;-73
2024/01/25 10:51:44;;;;;;;31.15;4.05;;;;;;;8.76;90.92;101741.75;5219018;28;20021;-72
2024/01/25 10:54:14;;;;;;;16.38;2.88;;;;;;;8.69;90.60;101745.31;5221181;28;20127;-73
2024/01/25 10:56:48;;;;;;;16.55;2.67;;;;;;;8.73;89.98;101740.94;5219741;28;20163;-73
2024/01/25 10:59:18;;;;;;;23.55;3.38;;;;;;;8.75;90.02;101750.47;5216414;28;20040;-72
2024/01/25 11:01:49;;;;;;;20.92;3.17;;;;;;;8.64;90.02;101757.53;5217291;28;20024;-73
2024/01/25 11:04:19;;;;;;;18.65;3.75;;;;;;;8.56;90.30;101759.31;5220322;28;20029;-73
2024/01/25 11:06:50;;;;;;;22.40;3.28;;;;;;;8.58;89.88;101754.97;5219980;28;20040;-73
2024/01/25 11:09:21;;;;;;;19.55;3.45;;;;;;;8.66;90.20;101754.91;5219694;28;20415;-73
2024/01/25 11:11:54;;;;;;;21.75;2.95;;;;;;;8.69;90.37;101754.91;5219720;28;20037;-73
2024/01/25 11:14:25;;;;;;;24.98;3.30;;;;;;;8.57;91.04;101755.84;5218641;28;20024;-72
2024/01/25 11:16:55;;;;;;;25.90;3.80;;;;;;;8.57;92.04;101755.00;5218170;28;20035;-73
2024/01/25 11:19:27;;;;;;;21.35;3.65;;;;;;;8.64;92.35;101748.84;5220190;28;20227;-71
2024/01/25 11:22:03;;;;;;;18.20;3.47;;;;;;;8.57;92.74;101750.63;5218640;28;20021;-73
2024/01/25 11:24:38;;;;;;;32.83;4.50;;;;;;;8.55;93.26;101741.97;5218508;28;20104;-72
2024/01/25 11:27:12;;;;;;;25.38;3.78;;;;;;;8.56;93.59;101735.88;5218390;28;20045;-71
2024/01/25 11:29:43;;;;;;;21.73;4.57;;;;;;;8.65;92.82;101738.41;5219975;28;20088;-73
2024/01/25 11:32:13;;;;;;;24.38;3.65;;;;;;;8.62;93.12;101734.97;5219552;28;20115;-72
2024/01/25 11:34:43;;;;;;;22.35;3.40;;;;;;;8.58;93.11;101735.88;5219797;28;20257;-72
2024/01/25 11:37:14;;;;;;;21.38;3.47;;;;;;;8.55;93.22;101731.53;5220285;28;20028;-72
2024/01/25 11:39:44;;;;;;;19.67;3.17;;;;;;;8.76;92.67;101733.94;5219089;28;20029;-73